Aviation Digital Data Service (ADDS)

Output produced by METARs form (0135 UTC 29 April 2017)
found at http://aviationweather.gov/adds/metars/
 
KCON 282332Z 2900/2924 VRB03KT P6SM BKN250 
     FM291000 30004KT P6SM BKN070 
     FM291600 30010G18KT P6SM BKN050